Time;durP1;ratioP1;P1;durP2;ratioP2;P2;SDS_P1;SDS_P2;PMS_P1;PMS_P2;Temp;Humidity;BMP_temperature;BMP_pressure;BME280_temperature;BME280_humidity;BME280_pressure;Samples;Min_cycle;Max_cycle;Signal;HPM_P1;HPM_P2
2022/05/11 00:01:18;;;;;;;34.30;14.48;;;11.40;99.90;;;;;;5055250;28;20103;-80
2022/05/11 00:03:44;;;;;;;27.38;12.93;;;11.30;99.90;;;;;;5055044;28;20025;-81
2022/05/11 00:06:09;;;;;;;26.17;13.85;;;11.30;99.90;;;;;;5055155;28;20025;-80
2022/05/11 00:11:57;;;;;;;26.65;12.77;;;11.30;99.90;;;;;;5035885;28;20025;-81
2022/05/11 00:14:40;;;;;;;25.15;12.80;;;11.40;99.90;;;;;;5034782;28;20029;-81
2022/05/11 00:17:06;;;;;;;26.65;13.23;;;11.40;99.90;;;;;;5034953;28;20033;-80
2022/05/11 00:19:31;;;;;;;25.58;12.75;;;11.50;99.90;;;;;;5034901;28;20096;-80
2022/05/11 00:21:57;;;;;;;32.45;13.77;;;11.50;99.90;;;;;;5034779;28;20117;-80
2022/05/11 00:24:25;;;;;;;30.48;14.23;;;11.40;99.90;;;;;;5034729;28;20025;-80
2022/05/11 00:30:12;;;;;;;28.65;13.18;;;11.50;99.90;;;;;;5054480;28;20032;-80
2022/05/11 00:33:15;;;;;;;26.02;12.40;;;11.50;99.90;;;;;;5054546;28;20033;-80
2022/05/11 00:35:42;;;;;;;22.65;11.43;;;11.60;99.90;;;;;;5055171;28;20029;-80
2022/05/11 00:38:09;;;;;;;28.20;11.45;;;11.60;99.90;;;;;;5054403;28;20033;-80
2022/05/11 00:40:44;;;;;;;22.10;11.65;;;11.60;99.90;;;;;;5054615;28;20021;-80
2022/05/11 00:43:09;;;;;;;25.30;11.77;;;11.60;99.90;;;;;;5054278;28;20029;-80
2022/05/11 00:45:44;;;;;;;23.42;11.75;;;11.60;99.90;;;;;;5054334;28;20020;-80
2022/05/11 00:51:15;;;;;;;25.85;12.15;;;11.60;99.90;;;;;;5043313;28;20079;-80
2022/05/11 00:53:45;;;;;;;26.08;12.60;;;11.50;99.90;;;;;;5034162;28;20160;-80
2022/05/11 00:56:28;;;;;;;24.10;11.00;;;11.60;99.90;;;;;;5034910;28;20100;-80
2022/05/11 00:59:04;;;;;;;26.92;12.52;;;11.60;99.90;;;;;;5034295;28;20037;-80
2022/05/11 01:01:30;;;;;;;26.60;11.77;;;11.60;99.90;;;;;;5034092;28;20105;-80
2022/05/11 01:04:05;;;;;;;24.30;11.90;;;11.50;99.90;;;;;;5033978;28;20061;-80
2022/05/11 01:06:32;;;;;;;20.98;11.27;;;11.50;99.90;;;;;;5034554;28;20029;-80
2022/05/11 01:09:00;;;;;;;24.20;11.50;;;11.50;99.90;;;;;;5034476;28;20022;-80
2022/05/11 01:11:26;;;;;;;25.02;11.95;;;11.40;99.90;;;;;;5033868;28;20032;-80
2022/05/11 01:13:52;;;;;;;23.48;12.10;;;11.40;99.90;;;;;;5058902;22;20061;-78
2022/05/11 01:16:18;;;;;;;19.27;10.63;;;11.40;99.90;;;;;;5054166;28;20158;-78
2022/05/11 01:18:44;;;;;;;28.38;11.95;;;11.40;99.90;;;;;;5054276;28;20025;-78
2022/05/11 01:21:10;;;;;;;27.63;12.40;;;11.30;99.90;;;;;;5054140;28;20040;-78
2022/05/11 01:23:53;;;;;;;25.02;11.05;;;11.20;99.90;;;;;;5054131;28;20029;-78
2022/05/11 01:26:19;;;;;;;28.45;11.45;;;11.20;99.90;;;;;;5054176;28;20442;-78
2022/05/11 01:28:47;;;;;;;23.98;10.65;;;11.10;99.90;;;;;;5053911;28;20488;-78
2022/05/11 01:31:15;;;;;;;28.48;11.73;;;11.10;99.90;;;;;;5054179;28;20025;-81
2022/05/11 01:33:51;;;;;;;28.35;11.45;;;11.10;99.90;;;;;;5053777;28;20056;-79
2022/05/11 01:36:24;;;;;;;24.45;10.85;;;11.10;99.90;;;;;;5053780;28;20053;-79
2022/05/11 01:38:52;;;;;;;24.42;10.43;;;11.10;99.90;;;;;;5053802;28;20017;-79
2022/05/11 01:41:38;;;;;;;27.33;11.30;;;11.10;99.90;;;;;;5053557;28;20033;-79
2022/05/11 01:44:07;;;;;;;27.10;11.80;;;11.10;99.90;;;;;;5053825;28;20023;-78
2022/05/11 01:46:33;;;;;;;21.38;11.05;;;11.10;99.90;;;;;;5053476;28;20025;-79
2022/05/11 01:48:59;;;;;;;22.05;10.65;;;11.10;99.90;;;;;;5053419;28;20027;-79
2022/05/11 01:51:25;;;;;;;20.92;10.52;;;11.10;99.90;;;;;;5054645;28;20025;-78
2022/05/11 01:53:51;;;;;;;22.20;11.20;;;11.10;99.90;;;;;;5053785;28;20087;-78
2022/05/11 01:56:20;;;;;;;26.70;12.05;;;11.10;99.90;;;;;;5053887;28;20029;-79
2022/05/11 01:58:46;;;;;;;21.95;11.38;;;11.10;99.90;;;;;;5053471;28;20059;-79
2022/05/11 02:01:15;;;;;;;28.13;11.05;;;11.20;99.90;;;;;;5035645;28;20025;-78
2022/05/11 02:03:41;;;;;;;22.48;11.30;;;11.20;99.90;;;;;;5053324;28;20021;-78
2022/05/11 02:08:51;;;;;;;26.08;11.73;;;11.20;99.90;;;;;;5053974;28;20503;-78
2022/05/11 02:11:17;;;;;;;25.40;10.00;;;11.20;99.90;;;;;;5053749;28;20070;-78
2022/05/11 02:13:44;;;;;;;24.08;10.40;;;11.20;99.90;;;;;;5053412;28;20044;-78
2022/05/11 02:16:11;;;;;;;25.42;10.45;;;11.20;99.90;;;;;;5054292;28;20014;-78
2022/05/11 02:18:37;;;;;;;27.15;10.00;;;11.10;99.90;;;;;;5035648;28;20025;-78
2022/05/11 02:21:03;;;;;;;21.15;9.75;;;11.00;99.90;;;;;;5053845;28;20021;-78
2022/05/11 02:23:29;;;;;;;22.63;9.85;;;11.00;99.90;;;;;;5053651;28;20031;-78
2022/05/11 02:25:55;;;;;;;18.48;9.70;;;11.00;99.90;;;;;;5054066;28;20086;-78
2022/05/11 02:28:22;;;;;;;24.77;9.35;;;11.10;99.90;;;;;;5053738;28;20025;-78
2022/05/11 02:30:49;;;;;;;25.48;9.95;;;11.10;99.90;;;;;;5053848;28;20040;-78
2022/05/11 02:33:15;;;;;;;18.65;9.48;;;11.10;99.90;;;;;;5053983;28;20365;-78
2022/05/11 02:35:42;;;;;;;22.25;9.48;;;11.10;99.90;;;;;;5053662;28;20025;-78
2022/05/11 02:38:15;;;;;;;21.48;9.65;;;11.20;99.90;;;;;;5053545;28;20044;-78
2022/05/11 02:40:41;;;;;;;20.10;8.80;;;11.20;99.90;;;;;;5053326;28;20107;-78
2022/05/11 02:43:09;;;;;;;20.50;9.38;;;11.20;99.90;;;;;;5053877;28;20407;-78
2022/05/11 02:45:36;;;;;;;18.90;9.27;;;11.30;99.90;;;;;;5053714;28;20025;-78
2022/05/11 02:48:03;;;;;;;21.30;8.85;;;11.30;99.90;;;;;;5053373;28;20017;-78
2022/05/11 02:50:33;;;;;;;22.08;8.32;;;11.30;99.90;;;;;;5054052;28;20114;-78
2022/05/11 02:52:59;;;;;;;20.55;8.73;;;11.30;99.90;;;;;;5055925;28;20032;-78
2022/05/11 02:55:25;;;;;;;21.45;9.05;;;11.30;99.90;;;;;;5057070;28;20635;-78
2022/05/11 02:57:51;;;;;;;21.98;8.73;;;11.30;99.90;;;;;;5057300;28;20028;-78
2022/05/11 03:00:19;;;;;;;20.38;7.97;;;11.50;99.90;;;;;;5057233;28;20029;-78
2022/05/11 03:02:45;;;;;;;17.85;7.57;;;11.40;99.90;;;;;;5056947;28;20021;-79
2022/05/11 03:05:12;;;;;;;16.20;8.02;;;11.40;99.90;;;;;;5056972;28;20021;-79
2022/05/11 03:07:39;;;;;;;20.98;8.20;;;11.40;99.90;;;;;;5056664;28;20025;-78
2022/05/11 03:10:06;;;;;;;27.00;8.68;;;11.40;99.90;;;;;;5057113;28;20029;-79
2022/05/11 03:12:32;;;;;;;20.58;8.48;;;11.30;99.90;;;;;;5056403;28;20029;-79
2022/05/11 03:14:59;;;;;;;24.95;8.38;;;11.30;99.90;;;;;;5056970;28;20021;-78
2022/05/11 03:17:25;;;;;;;21.75;8.32;;;11.40;99.90;;;;;;5038302;28;20036;-79
2022/05/11 03:19:51;;;;;;;19.83;8.32;;;11.50;99.90;;;;;;5056359;28;20029;-78
2022/05/11 03:22:17;;;;;;;18.17;7.80;;;11.50;99.90;;;;;;5056509;28;20021;-78
2022/05/11 03:24:42;;;;;;;17.08;7.85;;;11.50;99.90;;;;;;5056165;28;20388;-78
2022/05/11 03:27:08;;;;;;;21.13;8.15;;;11.50;99.90;;;;;;5056129;28;20024;-78
2022/05/11 03:29:34;;;;;;;21.15;7.78;;;11.50;99.90;;;;;;5056184;28;20021;-78
2022/05/11 03:34:44;;;;;;;19.98;8.13;;;11.50;99.90;;;;;;5055927;28;20036;-79
2022/05/11 03:37:13;;;;;;;19.08;8.00;;;11.40;99.90;;;;;;5055866;28;20029;-78
2022/05/11 03:39:39;;;;;;;15.48;7.40;;;11.40;99.90;;;;;;5055803;28;20033;-79
2022/05/11 03:42:11;;;;;;;15.07;7.10;;;11.40;99.90;;;;;;5055695;28;20025;-78
2022/05/11 03:44:37;;;;;;;20.83;7.32;;;11.50;99.90;;;;;;5055794;28;20032;-78
2022/05/11 03:47:03;;;;;;;18.13;7.50;;;11.50;99.90;;;;;;5055553;28;20025;-78
2022/05/11 03:49:28;;;;;;;18.15;7.55;;;11.50;99.90;;;;;;5055735;28;20052;-78
2022/05/11 03:51:54;;;;;;;21.33;7.53;;;11.50;99.90;;;;;;5055814;28;20021;-78
2022/05/11 03:54:20;;;;;;;19.08;7.65;;;11.60;99.90;;;;;;5038123;28;20048;-78
2022/05/11 03:56:46;;;;;;;20.83;7.50;;;11.60;99.90;;;;;;5055591;28;20033;-78
2022/05/11 03:59:12;;;;;;;17.92;7.70;;;11.60;99.90;;;;;;5055705;28;20025;-78
2022/05/11 04:01:38;;;;;;;16.55;7.03;;;11.60;99.90;;;;;;5055769;28;20035;-78
2022/05/11 04:04:04;;;;;;;23.17;7.65;;;11.60;99.90;;;;;;5054629;28;20090;-78
2022/05/11 04:06:29;;;;;;;16.92;7.10;;;11.70;99.90;;;;;;5055461;28;20537;-79
2022/05/11 04:08:55;;;;;;;16.15;6.93;;;11.70;99.90;;;;;;5055295;28;20032;-79
2022/05/11 04:11:22;;;;;;;16.70;7.03;;;11.70;99.90;;;;;;5055402;28;20146;-78
2022/05/11 04:13:49;;;;;;;17.55;7.50;;;11.70;99.90;;;;;;5055204;28;20045;-77
2022/05/11 04:16:16;;;;;;;15.43;7.10;;;11.80;99.90;;;;;;5055468;28;20130;-77
2022/05/11 04:18:42;;;;;;;16.67;6.78;;;11.90;99.90;;;;;;5037230;28;20021;-78
2022/05/11 04:21:08;;;;;;;18.58;7.38;;;12.00;99.90;;;;;;5055513;28;20021;-78
2022/05/11 04:23:34;;;;;;;22.73;7.28;;;12.00;99.90;;;;;;5057272;28;20055;-79
2022/05/11 04:26:00;;;;;;;19.20;7.28;;;12.10;99.90;;;;;;5054309;28;20418;-78
2022/05/11 04:28:25;;;;;;;17.13;6.72;;;12.10;99.90;;;;;;5054673;28;20104;-78
2022/05/11 04:30:58;;;;;;;17.98;6.72;;;12.20;99.90;;;;;;5051134;28;20051;-79
2022/05/11 04:33:24;;;;;;;15.25;5.88;;;12.20;99.90;;;;;;5054966;28;20056;-79
2022/05/11 04:35:49;;;;;;;14.45;6.97;;;12.30;99.90;;;;;;5054791;28;20028;-78
2022/05/11 04:38:15;;;;;;;14.07;6.40;;;12.30;99.90;;;;;;5044889;28;20108;-78
2022/05/11 04:40:40;;;;;;;16.13;6.22;;;12.40;99.90;;;;;;5034952;28;20624;-79
2022/05/11 04:43:10;;;;;;;17.63;6.50;;;12.50;99.90;;;;;;5046103;28;20530;-78
2022/05/11 04:45:40;;;;;;;20.67;6.70;;;12.60;99.90;;;;;;5054829;28;20029;-79
2022/05/11 04:48:06;;;;;;;18.25;6.55;;;12.60;99.90;;;;;;5054712;28;20278;-79
2022/05/11 04:50:32;;;;;;;18.70;6.63;;;12.70;99.90;;;;;;5054273;28;20028;-78
2022/05/11 04:52:58;;;;;;;20.33;7.65;;;12.70;99.90;;;;;;5036436;28;20024;-78
2022/05/11 04:55:24;;;;;;;16.27;6.95;;;12.80;99.90;;;;;;5054351;28;20147;-78
2022/05/11 04:57:49;;;;;;;16.90;6.20;;;12.80;99.90;;;;;;5054584;28;20025;-79
2022/05/11 05:00:15;;;;;;;19.10;7.15;;;12.80;99.90;;;;;;5036422;28;20726;-79
2022/05/11 05:02:41;;;;;;;21.50;5.97;;;12.90;99.90;;;;;;5054631;28;20474;-79
2022/05/11 05:05:10;;;;;;;16.60;6.35;;;13.10;99.90;;;;;;5055178;28;20021;-79
2022/05/11 05:07:36;;;;;;;13.13;6.20;;;13.30;99.90;;;;;;5056483;28;20021;-79
2022/05/11 05:10:07;;;;;;;16.05;6.22;;;13.40;99.90;;;;;;5056084;28;20028;-78
2022/05/11 05:12:32;;;;;;;17.25;5.72;;;13.40;99.90;;;;;;5054952;28;20039;-80
2022/05/11 05:14:58;;;;;;;17.63;5.97;;;13.40;99.90;;;;;;5053858;28;20557;-80
2022/05/11 05:17:25;;;;;;;15.35;6.60;;;13.50;99.90;;;;;;5054618;28;20082;-80
2022/05/11 05:19:51;;;;;;;14.88;6.15;;;13.60;99.90;;;;;;5054579;28;20028;-80
2022/05/11 05:22:16;;;;;;;16.90;6.65;;;13.60;99.90;;;;;;5055358;28;20029;-80
2022/05/11 05:24:43;;;;;;;13.82;5.25;;;13.70;99.90;;;;;;5055337;28;20047;-80
2022/05/11 05:27:18;;;;;;;12.48;4.70;;;14.00;99.90;;;;;;5055622;28;20051;-81
2022/05/11 05:32:34;;;;;;;11.80;5.30;;;14.40;78.70;;;;;;5054890;28;20728;-78
2022/05/11 05:35:00;;;;;;;13.73;5.05;;;14.50;35.60;;;;;;5055539;28;20032;-78
2022/05/11 05:37:26;;;;;;;15.02;5.38;;;14.50;24.10;;;;;;5054681;28;20048;-78
2022/05/11 05:39:51;;;;;;;15.32;4.93;;;14.30;36.90;;;;;;5054175;28;20017;-78
2022/05/11 05:42:19;;;;;;;16.33;4.70;;;14.40;41.20;;;;;;5054606;28;20028;-79
2022/05/11 05:44:45;;;;;;;16.25;4.97;;;14.50;41.20;;;;;;5034169;28;20388;-79
2022/05/11 05:47:11;;;;;;;13.68;3.92;;;14.70;30.60;;;;;;5034392;28;20377;-78
2022/05/11 05:49:38;;;;;;;15.15;4.22;;;14.80;1.80;;;;;;5051965;28;20029;-79
2022/05/11 05:52:04;;;;;;;13.02;4.18;;;14.90;1.00;;;;;;5054672;28;20370;-79
2022/05/11 05:54:31;;;;;;;10.70;3.47;;;14.90;1.00;;;;;;5054603;28;20028;-78
2022/05/11 05:56:57;;;;;;;14.20;3.40;;;15.00;1.00;;;;;;5054209;28;20029;-78
2022/05/11 05:59:22;;;;;;;12.13;2.95;;;15.00;1.00;;;;;;5038266;28;20382;-78
2022/05/11 06:01:48;;;;;;;13.27;2.83;;;15.20;1.00;;;;;;5034131;28;20487;-78
2022/05/11 06:04:13;;;;;;;14.43;3.67;;;15.40;1.00;;;;;;5034315;28;20504;-79
2022/05/11 06:06:39;;;;;;;9.98;3.60;;;15.40;1.00;;;;;;5016157;28;20040;-78
2022/05/11 06:09:04;;;;;;;10.25;3.03;;;15.40;1.00;;;;;;5033944;28;20121;-79
2022/05/11 06:11:30;;;;;;;14.25;2.70;;;15.30;1.00;;;;;;5034062;28;20473;-79
2022/05/11 06:13:59;;;;;;;9.18;2.38;;;15.40;1.00;;;;;;5012456;28;20068;-79
2022/05/11 06:16:25;;;;;;;13.07;3.20;;;15.40;1.00;;;;;;5014462;28;20084;-79
2022/05/11 06:18:51;;;;;;;8.43;2.90;;;15.40;1.00;;;;;;5013914;28;20034;-79
2022/05/11 06:21:16;;;;;;;13.10;2.58;;;15.40;1.00;;;;;;5014188;28;20385;-79
2022/05/11 06:23:44;;;;;;;12.27;3.03;;;15.50;1.00;;;;;;5014202;28;20022;-80
2022/05/11 06:26:10;;;;;;;12.70;3.00;;;15.70;1.00;;;;;;5012600;28;20022;-78
2022/05/11 06:28:37;;;;;;;13.80;2.63;;;15.90;1.00;;;;;;5017126;28;20041;-79
2022/05/11 06:31:03;;;;;;;14.05;3.00;;;15.70;1.00;;;;;;5016588;28;20029;-79
2022/05/11 06:33:28;;;;;;;12.18;2.55;;;15.90;1.00;;;;;;5014438;28;20034;-78
2022/05/11 06:35:54;;;;;;;9.85;2.15;;;16.20;1.00;;;;;;4997230;28;20037;-79
2022/05/11 06:38:20;;;;;;;14.15;3.00;;;16.00;1.00;;;;;;4997411;28;20104;-78
2022/05/11 06:40:45;;;;;;;12.73;2.70;;;15.80;1.00;;;;;;4997296;28;20026;-78
2022/05/11 06:43:12;;;;;;;12.48;2.97;;;15.90;1.00;;;;;;4997105;28;20022;-78
2022/05/11 06:45:38;;;;;;;12.35;2.55;;;16.00;1.00;;;;;;5007016;28;20033;-78
2022/05/11 06:48:03;;;;;;;13.18;2.42;;;16.00;1.00;;;;;;5016860;28;20037;-78
2022/05/11 06:50:29;;;;;;;15.40;3.05;;;16.20;1.00;;;;;;5016916;28;20030;-78
2022/05/11 06:52:56;;;;;;;12.48;2.75;;;16.60;1.00;;;;;;5016522;28;20014;-78
2022/05/11 07:00:49;;;;;;;12.68;2.85;;;17.00;1.00;;;;;;5016781;28;20033;-77
2022/05/11 07:03:15;;;;;;;10.43;3.08;;;17.00;99.90;;;;;;5007205;28;20026;-78
2022/05/11 07:05:43;;;;;;;12.07;2.90;;;16.90;99.90;;;;;;5006791;28;20018;-78
2022/05/11 07:08:09;;;;;;;13.68;3.40;;;16.80;1.00;;;;;;5016092;28;20042;-78
2022/05/11 07:10:39;;;;;;;16.52;3.17;;;17.40;99.90;;;;;;5016261;28;20097;-78
2022/05/11 07:13:05;;;;;;;14.68;3.13;;;17.50;99.90;;;;;;5024939;28;20049;-78
2022/05/11 07:15:31;;;;;;;14.82;3.78;;;17.70;99.90;;;;;;5055653;28;20468;-78
2022/05/11 07:17:59;;;;;;;13.13;2.97;;;18.00;99.90;;;;;;5055717;28;20028;-78
2022/05/11 07:20:28;;;;;;;17.88;3.70;;;17.90;99.90;;;;;;5055897;28;20045;-78
2022/05/11 07:22:55;;;;;;;12.40;3.45;;;18.20;99.90;;;;;;5056048;28;20017;-79
2022/05/11 07:25:24;;;;;;;14.68;2.85;;;18.40;99.90;;;;;;5046977;28;20025;-79
2022/05/11 07:27:50;;;;;;;13.30;2.90;;;18.30;99.90;;;;;;5035934;28;20037;-79
2022/05/11 07:30:22;;;;;;;12.77;2.65;;;18.20;99.90;;;;;;5036234;28;20148;-80
2022/05/11 07:32:48;;;;;;;12.20;3.40;;;18.20;99.90;;;;;;5055689;28;20440;-79
2022/05/11 07:35:13;;;;;;;10.98;3.13;;;18.30;99.90;;;;;;5055743;28;20021;-81
2022/05/11 07:37:39;;;;;;;11.43;3.33;;;18.50;99.90;;;;;;5055576;28;20035;-79
2022/05/11 07:40:07;;;;;;;13.68;3.28;;;18.90;99.90;;;;;;5042836;28;20604;-79
2022/05/11 07:42:33;;;;;;;12.43;3.28;;;19.00;99.90;;;;;;5035205;28;20507;-79
2022/05/11 07:44:58;;;;;;;12.43;3.20;;;19.70;99.90;;;;;;5035340;28;20108;-79
2022/05/11 07:47:24;;;;;;;11.93;2.70;;;20.30;99.90;;;;;;5035323;28;20080;-79
2022/05/11 07:49:50;;;;;;;13.70;3.53;;;21.70;99.90;;;;;;5035251;28;20439;-79
2022/05/11 07:52:16;;;;;;;11.40;3.05;;;22.80;99.90;;;;;;5035359;28;20057;-79
2022/05/11 07:54:42;;;;;;;15.77;3.55;;;23.10;99.90;;;;;;5035145;28;20105;-79
2022/05/11 07:59:56;;;;;;;12.20;3.08;;;23.50;99.90;;;;;;5035322;28;20064;-78
2022/05/11 08:02:27;;;;;;;15.13;3.33;;;23.20;99.90;;;;;;5035475;28;20428;-79
2022/05/11 08:04:57;;;;;;;10.65;3.08;;;23.10;99.90;;;;;;5035555;28;20017;-79
2022/05/11 08:07:26;;;;;;;14.20;3.00;;;24.20;99.90;;;;;;5034872;28;20064;-79
2022/05/11 08:09:55;;;;;;;16.58;3.70;;;25.50;99.90;;;;;;5035165;28;20022;-79
2022/05/11 08:12:21;;;;;;;10.50;2.83;;;25.10;99.90;;;;;;5034809;28;20097;-79
2022/05/11 08:14:47;;;;;;;16.60;3.30;;;25.20;99.90;;;;;;5034592;28;20572;-79
2022/05/11 08:17:12;;;;;;;15.25;3.45;;;25.70;99.90;;;;;;5034885;28;20087;-79
2022/05/11 08:19:41;;;;;;;12.40;2.80;;;26.00;99.90;;;;;;5034951;28;20711;-79
2022/05/11 08:22:07;;;;;;;14.10;3.10;;;27.20;99.90;;;;;;5033636;28;20456;-79
2022/05/11 08:24:32;;;;;;;12.70;2.65;;;26.90;99.90;;;;;;5034762;28;20681;-79
2022/05/11 08:26:58;;;;;;;9.35;2.70;;;26.70;99.90;;;;;;5034412;28;20120;-79
2022/05/11 08:34:52;;;;;;;12.70;2.30;;;28.90;99.90;;;;;;5034464;28;20133;-80
2022/05/11 08:37:18;;;;;;;10.05;2.58;;;30.30;99.90;;;;;;5034351;28;20101;-80
2022/05/11 08:39:44;;;;;;;11.00;2.20;;;31.60;99.90;;;;;;5034646;28;20406;-81
2022/05/11 08:42:12;;;;;;;9.18;2.28;;;29.20;99.90;;;;;;5034086;28;20028;-81
2022/05/11 08:44:43;;;;;;;10.20;2.70;;;27.30;99.90;;;;;;5033937;28;20112;-81
2022/05/11 08:47:32;;;;;;;11.93;2.75;;;27.20;99.90;;;;;;5034367;28;20026;-80
2022/05/11 08:50:16;;;;;;;8.07;2.30;;;27.20;99.90;;;;;;5033570;28;20029;-80
2022/05/11 08:52:59;;;;;;;9.85;2.03;;;28.40;99.90;;;;;;5034380;28;20013;-81
2022/05/11 08:55:45;;;;;;;9.25;2.17;;;29.70;99.90;;;;;;5034056;28;20060;-81
2022/05/11 08:58:23;;;;;;;10.23;2.35;;;28.90;99.90;;;;;;5033661;28;20608;-80
2022/05/11 09:00:51;;;;;;;12.07;2.53;;;28.30;99.90;;;;;;5034019;28;20022;-80
2022/05/11 09:03:36;;;;;;;9.88;2.40;;;28.10;99.90;;;;;;5033720;28;20037;-81
2022/05/11 09:06:06;;;;;;;10.50;2.10;;;29.70;99.90;;;;;;5033873;28;20029;-80
2022/05/11 09:08:35;;;;;;;;;;;31.60;99.90;;;;;;5033946;28;20041;-80
2022/05/11 09:11:00;;;;;;;9.60;2.05;;;35.80;99.90;;;;;;5033607;28;20630;-80
2022/05/11 09:13:27;;;;;;;8.23;2.30;;;37.40;99.90;;;;;;5032102;28;20053;-80
2022/05/11 09:15:53;;;;;;;8.63;1.95;;;37.10;99.90;;;;;;5016433;28;20021;-80
2022/05/11 09:18:20;;;;;;;12.27;2.08;;;37.50;99.90;;;;;;5015740;28;20037;-81
2022/05/11 09:20:50;;;;;;;8.70;1.90;;;38.10;99.90;;;;;;5033390;28;20029;-80
2022/05/11 09:23:28;;;;;;;7.88;2.33;;;38.80;99.90;;;;;;5033431;28;20033;-80
2022/05/11 09:26:04;;;;;;;5.38;2.08;;;39.60;99.90;;;;;;5033297;28;20041;-80
2022/05/11 09:28:33;;;;;;;11.18;2.38;;;39.50;99.90;;;;;;5033331;28;20049;-81
2022/05/11 09:30:59;;;;;;;;;;;40.00;99.90;;;;;;5033874;28;20037;-81
2022/05/11 09:33:28;;;;;;;8.27;2.05;;;39.60;99.90;;;;;;5033320;28;19905;-81
2022/05/11 09:35:55;;;;;;;8.45;1.90;;;39.00;99.90;;;;;;5033653;28;20031;-80
2022/05/11 09:38:20;;;;;;;9.70;2.45;;;38.70;99.90;;;;;;5051642;28;20056;-81
2022/05/11 09:41:07;;;;;;;8.85;2.50;;;38.80;99.90;;;;;;5033113;28;20017;-81
2022/05/11 09:43:50;;;;;;;10.45;2.83;;;38.60;99.90;;;;;;5033520;28;20040;-81
2022/05/11 09:46:26;;;;;;;12.02;2.60;;;37.80;99.90;;;;;;5053386;28;20031;-81
2022/05/11 09:49:13;;;;;;;12.38;2.30;;;37.90;99.90;;;;;;5050623;28;20538;-82
2022/05/11 09:51:38;;;;;;;7.43;2.25;;;39.20;99.90;;;;;;5033113;28;20476;-81
2022/05/11 09:54:22;;;;;;;13.80;2.90;;;37.90;99.90;;;;;;5036884;28;20021;-81
2022/05/11 09:56:58;;;;;;;9.98;2.53;;;35.10;99.90;;;;;;5034869;28;20048;-80
2022/05/11 09:59:29;;;;;;;10.88;2.63;;;35.40;99.90;;;;;;5050131;28;20025;-81
2022/05/11 10:02:31;;;;;;;8.85;2.25;;;34.60;99.90;;;;;;5035701;28;20112;-81
2022/05/11 10:05:14;;;;;;;12.93;3.13;;;32.60;99.90;;;;;;5034220;28;20048;-81
2022/05/11 10:07:53;;;;;;;6.47;2.10;;;33.50;99.90;;;;;;5037391;28;20491;-82
2022/05/11 10:10:42;;;;;;;10.02;2.50;;;31.10;99.90;;;;;;5057305;28;20025;-81
2022/05/11 10:13:18;;;;;;;12.02;2.20;;;33.10;99.90;;;;;;5055456;28;20079;-81
2022/05/11 10:24:26;;;;;;;6.70;1.75;;;30.90;99.90;;;;;;5037082;28;20534;-81
2022/05/11 10:26:58;;;;;;;7.72;2.15;;;29.70;99.90;;;;;;5036699;28;20025;-81
2022/05/11 10:29:49;;;;;;;10.85;2.28;;;29.20;99.90;;;;;;5036590;28;20025;-81
2022/05/11 10:32:51;;;;;;;10.18;2.22;;;28.50;99.90;;;;;;5033976;28;20037;-81
2022/05/11 10:35:29;;;;;;;7.68;2.22;;;27.60;99.90;;;;;;5017424;28;20037;-81
2022/05/11 10:38:14;;;;;;;5.82;1.65;;;28.10;99.90;;;;;;5036523;28;20076;-81
2022/05/11 10:41:03;;;;;;;9.48;2.60;;;28.60;99.90;;;;;;5036876;28;20108;-81
2022/05/11 10:43:51;;;;;;;10.82;2.33;;;29.40;99.90;;;;;;5041003;28;20021;-82
2022/05/11 10:46:31;;;;;;;12.02;2.78;;;30.80;99.90;;;;;;5056240;28;20082;-82
2022/05/11 10:49:19;;;;;;;10.60;2.75;;;29.80;99.90;;;;;;5056073;28;20056;-81
2022/05/11 10:52:04;;;;;;;13.68;2.58;;;28.50;99.90;;;;;;5056817;28;20025;-81
2022/05/11 10:55:07;;;;;;;8.43;2.78;;;29.00;99.90;;;;;;5038111;28;20484;-81
2022/05/11 10:57:54;;;;;;;13.30;2.90;;;28.10;99.90;;;;;;5038063;28;20032;-81
2022/05/11 11:00:22;;;;;;;9.57;2.63;;;26.60;99.90;;;;;;5037935;28;20017;-82
2022/05/11 11:03:08;;;;;;;14.65;3.00;;;27.30;99.90;;;;;;5056237;28;20029;-81
2022/05/11 11:05:40;;;;;;;14.52;2.92;;;28.20;99.90;;;;;;5038653;28;20025;-81
2022/05/11 11:08:42;;;;;;;10.90;2.65;;;27.60;99.90;;;;;;5036424;28;20315;-81
2022/05/11 11:11:28;;;;;;;11.43;2.80;;;27.60;99.90;;;;;;5002645;28;20453;-81
2022/05/11 11:14:01;;;;;;;10.48;2.60;;;26.80;99.90;;;;;;5030687;28;20450;-81
2022/05/11 11:16:32;;;;;;;13.43;2.42;;;26.10;99.90;;;;;;5031326;28;20338;-81
2022/05/11 11:18:59;;;;;;;8.63;2.15;;;25.90;99.90;;;;;;5031545;28;20053;-81
2022/05/11 11:21:25;;;;;;;11.43;2.70;;;25.40;99.90;;;;;;5020363;28;20491;-81
2022/05/11 11:24:13;;;;;;;11.70;2.45;;;25.20;99.90;;;;;;5034722;28;20353;-81
2022/05/11 11:26:46;;;;;;;12.20;3.33;;;25.70;99.90;;;;;;5034308;28;20033;-81
2022/05/11 11:29:11;;;;;;;10.73;2.28;;;25.60;99.90;;;;;;5035722;28;20384;-81
2022/05/11 11:31:56;;;;;;;12.75;2.97;;;25.70;99.90;;;;;;5034513;28;20521;-81
2022/05/11 11:34:25;;;;;;;9.57;2.63;;;26.30;99.90;;;;;;5033992;28;20024;-81
2022/05/11 11:36:52;;;;;;;11.73;3.60;;;25.20;99.90;;;;;;5030782;28;20076;-81
2022/05/11 11:39:48;;;;;;;9.65;2.28;;;24.80;99.90;;;;;;5025656;28;20295;-81
2022/05/11 11:42:33;;;;;;;10.88;2.47;;;25.60;99.90;;;;;;5050520;28;20014;-80
2022/05/11 11:44:59;;;;;;;13.82;3.15;;;25.30;99.90;;;;;;5036305;28;20075;-80
2022/05/11 11:47:27;;;;;;;14.55;3.50;;;25.20;99.90;;;;;;5033570;28;20038;-80
2022/05/11 11:49:58;;;;;;;12.25;3.42;;;24.70;99.90;;;;;;5033898;28;20091;-81
2022/05/11 11:52:34;;;;;;;15.55;4.00;;;23.90;99.90;;;;;;5015986;28;20026;-81
2022/05/11 11:55:00;;;;;;;15.45;3.95;;;23.50;99.90;;;;;;5016150;28;20335;-81
2022/05/11 11:57:28;;;;;;;12.07;3.60;;;23.70;99.90;;;;;;5030728;28;20156;-81
2022/05/11 11:59:57;;;;;;;11.30;3.55;;;24.10;99.90;;;;;;5030688;28;20108;-81
2022/05/11 12:02:34;;;;;;;14.88;3.80;;;25.50;99.90;;;;;;5033917;28;20043;-82
2022/05/11 12:05:08;;;;;;;14.57;3.53;;;25.30;99.90;;;;;;5035355;28;20377;-81
2022/05/11 12:16:10;;;;;;;13.73;3.40;;;24.50;99.90;;;;;;5054806;28;20032;-81
2022/05/11 12:18:38;;;;;;;13.48;3.50;;;24.00;99.90;;;;;;5054698;28;20052;-81
2022/05/11 12:21:11;;;;;;;12.60;3.70;;;25.10;99.90;;;;;;5036800;28;20025;-81
2022/05/11 12:23:46;;;;;;;15.65;3.72;;;25.60;99.90;;;;;;5025499;28;20117;-81
2022/05/11 12:26:22;;;;;;;16.65;3.50;;;24.90;99.90;;;;;;5053363;28;20032;-81
2022/05/11 12:28:48;;;;;;;12.05;3.50;;;24.60;99.90;;;;;;5054319;28;20033;-79
2022/05/11 12:31:40;;;;;;;14.13;4.07;;;24.60;99.90;;;;;;5054135;28;20491;-80
2022/05/11 12:34:06;;;;;;;11.07;3.42;;;24.70;99.90;;;;;;5033639;28;20033;-81
2022/05/11 12:36:37;;;;;;;13.77;3.67;;;25.00;99.90;;;;;;5052807;28;20401;-82
2022/05/11 12:39:03;;;;;;;12.55;4.03;;;24.40;99.90;;;;;;5036264;28;20032;-82
2022/05/11 12:41:29;;;;;;;12.68;3.85;;;24.00;99.90;;;;;;5052759;28;20025;-82
2022/05/11 12:43:58;;;;;;;10.90;4.05;;;24.00;99.90;;;;;;5053911;28;20545;-81
2022/05/11 12:46:25;;;;;;;11.60;4.40;;;24.30;99.90;;;;;;5052694;28;20139;-81
2022/05/11 12:49:04;;;;;;;18.15;4.50;;;24.00;99.90;;;;;;5052321;28;20062;-81
2022/05/11 12:51:38;;;;;;;17.95;3.95;;;23.30;99.90;;;;;;5052534;28;20357;-81
2022/05/11 12:54:06;;;;;;;11.88;4.00;;;24.10;99.90;;;;;;5054857;28;20696;-80
2022/05/11 12:56:35;;;;;;;16.15;4.35;;;23.40;99.90;;;;;;5052975;28;20036;-81
2022/05/11 12:59:17;;;;;;;14.27;4.57;;;23.40;99.90;;;;;;5034929;28;20127;-81
2022/05/11 13:01:43;;;;;;;15.05;4.05;;;23.90;99.90;;;;;;5039166;28;20476;-81
2022/05/11 13:04:19;;;;;;;11.98;3.72;;;23.50;99.90;;;;;;5040133;28;20485;-80
2022/05/11 13:06:48;;;;;;;14.88;3.65;;;23.70;99.90;;;;;;5035879;28;20025;-81
2022/05/11 13:09:23;;;;;;;11.02;3.65;;;24.10;99.90;;;;;;5034362;28;20033;-81
2022/05/11 13:11:49;;;;;;;12.15;3.38;;;23.50;99.90;;;;;;5038600;28;20056;-81
2022/05/11 13:14:25;;;;;;;15.20;4.25;;;24.00;99.90;;;;;;5051384;28;20407;-81
2022/05/11 13:16:53;;;;;;;13.80;3.53;;;24.40;99.90;;;;;;5032762;28;20029;-81
2022/05/11 13:19:29;;;;;;;12.73;3.45;;;24.60;99.90;;;;;;5017227;28;20026;-82
2022/05/11 13:21:57;;;;;;;13.85;3.13;;;24.40;99.90;;;;;;5051508;28;20104;-82
2022/05/11 13:24:42;;;;;;;8.32;2.50;;;24.30;99.90;;;;;;5036836;28;20028;-83
2022/05/11 13:27:40;;;;;;;12.77;2.90;;;23.70;99.90;;;;;;5034698;28;20045;-82
2022/05/11 13:30:22;;;;;;;9.68;3.00;;;24.40;99.90;;;;;;5019042;28;20025;-82
2022/05/11 13:32:57;;;;;;;10.63;2.53;;;23.80;99.90;;;;;;5022422;28;20030;-83
2022/05/11 13:35:34;;;;;;;12.13;3.33;;;24.10;99.90;;;;;;5036215;28;20029;-82
2022/05/11 13:38:09;;;;;;;10.30;2.53;;;23.50;99.90;;;;;;5019963;28;20030;-82
2022/05/11 13:40:42;;;;;;;10.60;2.40;;;24.00;99.90;;;;;;5027264;28;20025;-83
2022/05/11 13:43:25;;;;;;;10.85;2.55;;;24.00;99.90;;;;;;5046320;28;20037;-82